• Join FlightAware (Why Join?)
  • Login
  • US Flag 
11:05PM EDT


 

Airport Tracker/Info


-or-


 

Live Flight TrackerFlight Track Log ✈ RPA3457 ✈ 26-Apr-2013 ✈ KBTV - KDCA

Flight Track Log - Related Links

Times and Time Zones

All times are in EDT time to prevent confusion due to time zone crossing. See the RPA3457 flight status page for this flight to view local times or setup timezone preferences in your user account.

Time Position Orientation Groundspeed Altitude Reporting Facility
EDT Latitude Longitude Course Direction KTS MPH feet Rate Location/Type
08:30AM 44.0002 -73.3222 194° South  Level FlightAware Approximate
08:31AM 43.8437 -73.3774 195° South  Level FlightAware Approximate
08:31AM 44.2903 -73.1797 200° South 255 293 10,200  Level Boston Center
08:32AM 43.6879 -73.4358 195° South  Level FlightAware Approximate
08:32AM 44.2003 -73.2161 196° South 278 320 13,600  Level Boston Center
08:33AM 43.5340 -73.5028 198° South  Level FlightAware Approximate
08:33AM 44.1189 -73.2528 198° South 299 344 16,500  Level Boston Center
08:34AM 43.3772 -73.5526 197° South  Level FlightAware Approximate
08:34AM 44.0500 -73.2778 195° South 311 358 18,400  Level Boston Center
08:35AM 43.2223 -73.6148 194° South  Level FlightAware Approximate
08:35AM 43.9494 -73.3225 198° South 338 389 21,100  Level Boston Center
08:36AM 43.0672 -73.6748 200° South  Level FlightAware Approximate
08:36AM 43.8367 -73.3669 196° South 353 406 23,600  Level Boston Center
08:37AM 43.7342 -73.4083 196° South 370 426 25,700 1,800 Climbing Boston Center
08:38AM 43.6317 -73.4497 196° South 381 438 27,300 1,620 Climbing Boston Center
08:39AM 43.5250 -73.4911 196° South 387 445 29,000 1,440 Climbing Boston Center
08:40AM 43.4142 -73.5319 195° South 400 460 30,200 1,080 Climbing Boston Center
08:41AM 43.2933 -73.5297 179° South 420 483 31,200 1,200 Climbing Boston Center
08:42AM 43.1706 -73.5275 179° South 436 502 32,700 1,380 Climbing Boston Center
08:43AM 43.0372 -73.5281 180° South 441 507 34,000 600 Climbing Boston Center
08:44AM 42.9161 -73.5344 182° South 434 499 34,000  Level Boston Center
08:45AM 42.8100 -73.5353 180° South 433 498 34,000  Level Boston Center
08:46AM 42.6764 -73.5386 181° South 438 504 34,000  Level Boston Center
08:47AM 42.5658 -73.5422 181° South 438 504 34,000  Level Boston Center
08:48AM 42.4306 -73.5483 182° South 438 504 34,000  Level Boston Center
08:49AM 42.3094 -73.5489 180° South 439 505 34,000  Level Boston Center
08:50AM 42.1844 -73.5525 181° South 439 505 34,000  Level Boston Center
08:51AM 42.0636 -73.5531 180° South 439 505 34,000 240 Level Boston Center
08:52AM 41.9383 -73.5619 183° South 455 524 34,500 600 Climbing Boston Center
08:53AM 41.8258 -73.5656 181° South 455 524 35,300 480 Climbing Boston Center
08:55AM 41.5969 -73.5728 181° South 433 498 36,000 240 Climbing New York Center
08:56AM 41.4822 -73.5764 181° South 433 498 36,000  Level New York Center
08:57AM 41.3614 -73.5797 181° South 433 498 36,000  Level New York Center
08:58AM 41.2581 -73.6386 203° Southwest 412 474 36,000  Level New York Center
08:59AM 41.1864 -73.7542 231° Southwest 396 456 36,000  Level New York Center
09:00AM 41.1167 -73.8750 233° Southwest 402 463 36,000 -360 Level New York Center
09:01AM 41.0533 -73.9794 231° Southwest 407 468 35,400 -1,380 Descending New York Center
09:02AM 40.9836 -74.0942 231° Southwest 413 475 33,300 -2,160 Descending New York Center
09:03AM 40.9094 -74.2058 229° Southwest 413 475 31,200 -2,100 Descending New York Center
09:04AM 40.8397 -74.3175 230° Southwest 413 475 29,100 -1,620 Descending New York Center
09:05AM 40.7717 -74.4319 232° Southwest 413 475 28,000 -660 Descending New York Center
09:06AM 40.7056 -74.5406 231° Southwest 401 461 27,800 -660 Descending New York Center
09:07AM 40.6394 -74.6492 231° Southwest 394 453 26,800 -1,020 Descending New York Center
09:08AM 40.5736 -74.7547 231° Southwest 389 448 25,800 -1,020 Descending New York Center
09:09AM 40.4989 -74.8622 228° Southwest 389 448 24,800 -1,080 Descending New York Center
09:10AM 40.4222 -74.9694 227° Southwest 399 459 23,700 -1,080 Descending New York Center
09:11AM 40.3478 -75.0739 227° Southwest 405 466 22,700 -900 Descending New York Center
09:12AM 40.2728 -75.1806 227° Southwest 405 466 22,000 -360 Descending New York Center
09:13AM 40.2003 -75.2819 227° Southwest 400 460 22,000  Level New York Center
09:14AM 40.1342 -75.3756 227° Southwest 382 440 22,000  Level New York Center
09:15AM 40.0744 -75.4639 229° Southwest 354 407 22,000 -180 Level New York Center
09:16AM 40.0144 -75.5519 228° Southwest 336 387 21,700 -420 Descending New York Center
09:17AM 39.9589 -75.6403 231° Southwest 330 380 21,200 -660 Descending New York Center
09:18AM 39.9031 -75.7283 230° Southwest 324 373 20,400 -600 Descending New York Center
09:19AM 39.8472 -75.8136 230° Southwest 318 366 20,000 -240 Descending New York Center
09:20AM 39.7892 -75.9014 229° Southwest 324 373 20,000  Level New York Center
09:21AM 39.7353 -75.9892 231° Southwest 318 366 20,000 -840 Level New York Center
09:22AM 39.6708 -76.0789 227° Southwest 318 366 18,400 -1,440 Descending New York Center
09:23AM 39.6256 -76.1564 233° Southwest 313 360 17,200 -1,680 Descending New York Center
09:23AM 39.5833 -76.2167 228° Southwest 301 346 15,700 -1,860 Descending Potomac TRACON
09:24AM 39.5333 -76.3000 232° Southwest 298 343 14,200 -1,560 Descending Potomac TRACON
09:25AM 39.4667 -76.3833 224° Southwest 287 330 12,600 -1,200 Descending Potomac TRACON
09:26AM 39.4333 -76.4500 237° Southwest 282 325 12,000 -360 Descending Potomac TRACON
09:27AM 39.3667 -76.5000 210° Southwest 286 329 12,000  Level Potomac TRACON
09:28AM 39.3000 -76.5500 210° Southwest 291 335 12,000 -480 Level Potomac TRACON
09:29AM 39.2333 -76.6167 218° Southwest 290 334 11,200 -1,080 Descending Potomac TRACON
09:30AM 39.1667 -76.6667 210° Southwest 272 313 10,000 -660 Descending Potomac TRACON
09:31AM 39.1167 -76.7167 218° Southwest 267 307 10,000 -60 Level Potomac TRACON
09:32AM 39.0667 -76.7833 226° Southwest 271 312 9,900 -540 Descending Potomac TRACON
09:33AM 39.0167 -76.8500 226° Southwest 236 272 9,000 -900 Descending Potomac TRACON
09:34AM 38.9667 -76.9000 218° Southwest 203 234 8,300 -1,200 Descending Potomac TRACON
09:35AM 38.9167 -76.9333 207° Southwest 208 239 6,700 -1,200 Descending Potomac TRACON
09:36AM 38.8667 -76.9500 195° South 213 245 5,900 -840 Descending Potomac TRACON
09:37AM 38.8167 -76.9500 180° South 214 246 5,200 -480 Descending Potomac TRACON
09:38AM 38.7667 -76.9500 180° South 208 239 5,000 -240 Descending Potomac TRACON
09:39AM 38.7000 -76.9333 169° South 206 237 4,800 -480 Descending Potomac TRACON
09:40AM 38.6500 -76.9333 180° South 200 230 4,100 -420 Descending Potomac TRACON
09:41AM 38.6000 -76.9333 180° South 191 220 4,000 -60 Descending Potomac TRACON
09:42AM 38.5833 -76.9833 247° West 181 208 4,000  Level Potomac TRACON
09:43AM 38.6333 -77.0167 332° Northwest 150 173 4,000 -300 Level Potomac TRACON
09:44AM 38.6667 -77.0167 360° North 152 175 3,500 -600 Descending Potomac TRACON
09:45AM 38.7167 -77.0333 345° North 146 168 2,800 -720 Descending Potomac TRACON